map of KRUE home
KRUE - Airport
Location
City:  Russellville, Arkansas, United States
Name:Russellville Regional
ICAO:KRUE
FAA LID:RUE

Details
Type:Airport (Airfield)
Use:Public/Civil
Latitude:3515'33"N (35.259283)
Longitude:9305'33"W (-93.092621)
Datum:WGS 1984
Elevation:409 ft (125 m)
Variation:0.70E (WMM2015 magnetic declination)
-0.10 annual change
Runways:1
Longest:5505 × 75 ft (1678 × 23 m), paved

Time
Time Zone:UTC-6 (DST-5)
Local Time:

Weather
METAR:KRUE 170653Z AUTO 00000KT 7SM -RA OVC011 09/08 A3004 RMK AO2 RAB39 SLP170 P0004 T00890083

Related Locations
Nearby:
Farthest:YAUG: 10841 mi / 17448 km
Augusta [Augusta Airport], WA, AU

Find:

   beyond  
but within

Other Information
Maps:
NOTAMs:
Links:
Sources:

  
  • flag of United States
  • flag of Arkansas
  

Sectional Chart

Flight Planning
at skyvector.com

Satellite Image

Google Maps Satellite view

 

Copyright © 2004-2019 Karl L. Swartz. All rights reserved.
The Great Circle Mapper name and logo are trademarks of the Great Circle Mapper.
All other trademarks mentioned herein belong to their respective owners.
Please see credits for attibutions and further copyright information.

  Follow gcmap on Facebook Follow gcmap on Twitter Follow gcmap on Google+ GCmap on LinkedIn

hCard Microformat

Geo Microformat